sensor_id;sensor_type;location;lat;lon;timestamp;P1;durP1;ratioP1;P2;durP2;ratioP2
3379;SDS011;1703;51.964;7.642;2023-07-20T00:01:29;5.20;;;4.80;;
3379;SDS011;1703;51.964;7.642;2023-07-20T00:03:56;5.93;;;5.23;;
3379;SDS011;1703;51.964;7.642;2023-07-20T00:06:23;6.43;;;5.70;;
3379;SDS011;1703;51.964;7.642;2023-07-20T00:08:52;5.77;;;5.17;;
3379;SDS011;1703;51.964;7.642;2023-07-20T00:11:21;8.90;;;5.50;;
3379;SDS011;1703;51.964;7.642;2023-07-20T00:13:53;5.37;;;4.87;;
3379;SDS011;1703;51.964;7.642;2023-07-20T00:16:20;5.03;;;4.50;;
3379;SDS011;1703;51.964;7.642;2023-07-20T00:18:47;7.87;;;5.80;;
3379;SDS011;1703;51.964;7.642;2023-07-20T00:21:13;13.03;;;5.60;;
3379;SDS011;1703;51.964;7.642;2023-07-20T00:23:40;8.33;;;5.90;;
3379;SDS011;1703;51.964;7.642;2023-07-20T00:26:07;5.20;;;4.70;;
3379;SDS011;1703;51.964;7.642;2023-07-20T00:28:35;7.83;;;5.60;;
3379;SDS011;1703;51.964;7.642;2023-07-20T00:31:02;6.73;;;5.90;;
3379;SDS011;1703;51.964;7.642;2023-07-20T00:33:29;7.63;;;5.00;;
3379;SDS011;1703;51.964;7.642;2023-07-20T00:35:56;7.43;;;6.00;;
3379;SDS011;1703;51.964;7.642;2023-07-20T00:38:23;15.87;;;5.23;;
3379;SDS011;1703;51.964;7.642;2023-07-20T00:40:50;7.13;;;5.43;;
3379;SDS011;1703;51.964;7.642;2023-07-20T00:43:17;7.07;;;5.83;;
3379;SDS011;1703;51.964;7.642;2023-07-20T00:45:46;7.57;;;6.90;;
3379;SDS011;1703;51.964;7.642;2023-07-20T00:48:13;6.43;;;5.80;;
3379;SDS011;1703;51.964;7.642;2023-07-20T00:50:42;7.03;;;5.80;;
3379;SDS011;1703;51.964;7.642;2023-07-20T00:53:09;6.90;;;6.20;;
3379;SDS011;1703;51.964;7.642;2023-07-20T00:55:36;11.70;;;6.97;;
3379;SDS011;1703;51.964;7.642;2023-07-20T00:58:03;7.27;;;6.53;;
3379;SDS011;1703;51.964;7.642;2023-07-20T01:00:30;8.20;;;7.23;;
3379;SDS011;1703;51.964;7.642;2023-07-20T01:02:58;9.77;;;6.83;;
3379;SDS011;1703;51.964;7.642;2023-07-20T01:05:28;8.20;;;7.13;;
3379;SDS011;1703;51.964;7.642;2023-07-20T01:08:03;10.33;;;8.17;;
3379;SDS011;1703;51.964;7.642;2023-07-20T01:10:39;8.53;;;7.60;;
3379;SDS011;1703;51.964;7.642;2023-07-20T01:13:10;9.33;;;8.33;;
3379;SDS011;1703;51.964;7.642;2023-07-20T01:15:41;11.23;;;8.10;;
3379;SDS011;1703;51.964;7.642;2023-07-20T01:18:09;8.63;;;7.17;;
3379;SDS011;1703;51.964;7.642;2023-07-20T01:20:36;12.40;;;8.07;;
3379;SDS011;1703;51.964;7.642;2023-07-20T01:23:09;8.50;;;7.70;;
3379;SDS011;1703;51.964;7.642;2023-07-20T01:26:11;8.67;;;7.80;;
3379;SDS011;1703;51.964;7.642;2023-07-20T01:29:00;11.30;;;7.70;;
3379;SDS011;1703;51.964;7.642;2023-07-20T01:31:50;11.50;;;8.20;;
3379;SDS011;1703;51.964;7.642;2023-07-20T01:34:19;9.30;;;8.50;;
3379;SDS011;1703;51.964;7.642;2023-07-20T01:36:49;12.77;;;8.90;;
3379;SDS011;1703;51.964;7.642;2023-07-20T01:39:18;9.73;;;8.83;;
3379;SDS011;1703;51.964;7.642;2023-07-20T01:41:46;11.57;;;8.23;;
3379;SDS011;1703;51.964;7.642;2023-07-20T01:44:13;14.33;;;8.37;;
3379;SDS011;1703;51.964;7.642;2023-07-20T01:46:40;9.03;;;8.20;;
3379;SDS011;1703;51.964;7.642;2023-07-20T01:49:08;11.87;;;9.30;;
3379;SDS011;1703;51.964;7.642;2023-07-20T01:51:35;10.43;;;8.23;;
3379;SDS011;1703;51.964;7.642;2023-07-20T01:54:02;9.93;;;8.00;;
3379;SDS011;1703;51.964;7.642;2023-07-20T01:56:29;9.17;;;8.23;;
3379;SDS011;1703;51.964;7.642;2023-07-20T01:58:55;13.97;;;9.23;;
3379;SDS011;1703;51.964;7.642;2023-07-20T02:01:22;9.20;;;8.17;;
3379;SDS011;1703;51.964;7.642;2023-07-20T02:03:49;11.17;;;7.90;;
3379;SDS011;1703;51.964;7.642;2023-07-20T02:06:17;11.93;;;7.57;;
3379;SDS011;1703;51.964;7.642;2023-07-20T02:08:44;13.37;;;9.07;;
3379;SDS011;1703;51.964;7.642;2023-07-20T02:11:11;12.43;;;7.97;;
3379;SDS011;1703;51.964;7.642;2023-07-20T02:13:38;14.97;;;6.90;;
3379;SDS011;1703;51.964;7.642;2023-07-20T02:16:05;9.90;;;7.73;;
3379;SDS011;1703;51.964;7.642;2023-07-20T02:18:31;7.97;;;7.27;;
3379;SDS011;1703;51.964;7.642;2023-07-20T02:21:00;9.13;;;8.20;;
3379;SDS011;1703;51.964;7.642;2023-07-20T02:23:28;9.10;;;8.30;;
3379;SDS011;1703;51.964;7.642;2023-07-20T02:25:55;8.50;;;7.40;;
3379;SDS011;1703;51.964;7.642;2023-07-20T02:28:22;8.90;;;8.10;;
3379;SDS011;1703;51.964;7.642;2023-07-20T02:30:49;12.00;;;7.73;;
3379;SDS011;1703;51.964;7.642;2023-07-20T02:33:15;9.00;;;7.83;;
3379;SDS011;1703;51.964;7.642;2023-07-20T02:35:42;8.70;;;7.60;;
3379;SDS011;1703;51.964;7.642;2023-07-20T02:38:09;9.30;;;8.40;;
3379;SDS011;1703;51.964;7.642;2023-07-20T02:40:37;12.97;;;8.57;;
3379;SDS011;1703;51.964;7.642;2023-07-20T02:43:04;11.40;;;8.10;;
3379;SDS011;1703;51.964;7.642;2023-07-20T02:45:31;10.47;;;9.00;;
3379;SDS011;1703;51.964;7.642;2023-07-20T02:47:57;11.10;;;9.23;;
3379;SDS011;1703;51.964;7.642;2023-07-20T02:50:24;9.27;;;8.23;;
3379;SDS011;1703;51.964;7.642;2023-07-20T02:52:51;11.03;;;8.53;;
3379;SDS011;1703;51.964;7.642;2023-07-20T02:55:18;10.20;;;9.00;;
3379;SDS011;1703;51.964;7.642;2023-07-20T02:57:46;11.00;;;9.87;;
3379;SDS011;1703;51.964;7.642;2023-07-20T03:00:14;9.27;;;8.40;;
3379;SDS011;1703;51.964;7.642;2023-07-20T03:02:41;9.47;;;8.50;;
3379;SDS011;1703;51.964;7.642;2023-07-20T03:05:08;10.70;;;7.93;;
3379;SDS011;1703;51.964;7.642;2023-07-20T03:07:35;8.87;;;8.07;;
3379;SDS011;1703;51.964;7.642;2023-07-20T03:10:03;9.40;;;8.50;;
3379;SDS011;1703;51.964;7.642;2023-07-20T03:12:32;9.17;;;8.33;;
3379;SDS011;1703;51.964;7.642;2023-07-20T03:15:01;8.03;;;7.33;;
3379;SDS011;1703;51.964;7.642;2023-07-20T03:17:28;7.80;;;7.10;;
3379;SDS011;1703;51.964;7.642;2023-07-20T03:19:55;7.30;;;6.40;;
3379;SDS011;1703;51.964;7.642;2023-07-20T03:22:22;9.07;;;6.77;;
3379;SDS011;1703;51.964;7.642;2023-07-20T03:24:49;9.07;;;7.47;;
3379;SDS011;1703;51.964;7.642;2023-07-20T03:27:18;9.80;;;7.00;;
3379;SDS011;1703;51.964;7.642;2023-07-20T03:29:45;7.90;;;7.20;;
3379;SDS011;1703;51.964;7.642;2023-07-20T03:32:13;9.00;;;6.20;;
3379;SDS011;1703;51.964;7.642;2023-07-20T03:34:40;9.60;;;7.20;;
3379;SDS011;1703;51.964;7.642;2023-07-20T03:37:10;7.10;;;6.40;;
3379;SDS011;1703;51.964;7.642;2023-07-20T03:39:36;7.90;;;6.20;;
3379;SDS011;1703;51.964;7.642;2023-07-20T03:42:03;8.80;;;7.07;;
3379;SDS011;1703;51.964;7.642;2023-07-20T03:44:32;12.40;;;6.70;;
3379;SDS011;1703;51.964;7.642;2023-07-20T03:46:59;6.80;;;6.20;;
3379;SDS011;1703;51.964;7.642;2023-07-20T03:49:27;7.20;;;6.30;;
3379;SDS011;1703;51.964;7.642;2023-07-20T03:51:54;7.33;;;6.30;;
3379;SDS011;1703;51.964;7.642;2023-07-20T03:54:21;7.20;;;6.60;;
3379;SDS011;1703;51.964;7.642;2023-07-20T03:56:48;9.43;;;7.83;;
3379;SDS011;1703;51.964;7.642;2023-07-20T03:59:15;9.50;;;8.43;;
3379;SDS011;1703;51.964;7.642;2023-07-20T04:01:41;8.27;;;7.57;;
3379;SDS011;1703;51.964;7.642;2023-07-20T04:04:08;10.67;;;8.93;;
3379;SDS011;1703;51.964;7.642;2023-07-20T04:06:37;10.10;;;9.17;;
3379;SDS011;1703;51.964;7.642;2023-07-20T04:09:04;10.30;;;9.30;;
3379;SDS011;1703;51.964;7.642;2023-07-20T04:11:31;9.43;;;8.53;;
3379;SDS011;1703;51.964;7.642;2023-07-20T04:13:57;12.13;;;10.93;;
3379;SDS011;1703;51.964;7.642;2023-07-20T04:16:24;10.17;;;8.53;;
3379;SDS011;1703;51.964;7.642;2023-07-20T04:18:52;9.67;;;8.80;;
3379;SDS011;1703;51.964;7.642;2023-07-20T04:21:20;14.47;;;10.47;;
3379;SDS011;1703;51.964;7.642;2023-07-20T04:23:48;13.80;;;11.13;;
3379;SDS011;1703;51.964;7.642;2023-07-20T04:26:15;12.43;;;11.27;;
3379;SDS011;1703;51.964;7.642;2023-07-20T04:28:42;13.77;;;12.37;;
3379;SDS011;1703;51.964;7.642;2023-07-20T04:31:15;13.10;;;11.70;;
3379;SDS011;1703;51.964;7.642;2023-07-20T04:33:43;15.13;;;13.63;;
3379;SDS011;1703;51.964;7.642;2023-07-20T04:36:10;13.40;;;12.03;;
3379;SDS011;1703;51.964;7.642;2023-07-20T04:38:37;16.63;;;13.37;;
3379;SDS011;1703;51.964;7.642;2023-07-20T04:41:12;14.63;;;11.77;;
3379;SDS011;1703;51.964;7.642;2023-07-20T04:43:43;14.43;;;12.87;;
3379;SDS011;1703;51.964;7.642;2023-07-20T04:46:12;14.03;;;12.50;;
3379;SDS011;1703;51.964;7.642;2023-07-20T04:48:40;14.63;;;13.07;;
3379;SDS011;1703;51.964;7.642;2023-07-20T04:51:08;14.17;;;12.67;;
3379;SDS011;1703;51.964;7.642;2023-07-20T04:53:35;13.37;;;12.07;;
3379;SDS011;1703;51.964;7.642;2023-07-20T04:56:03;17.27;;;13.40;;
3379;SDS011;1703;51.964;7.642;2023-07-20T04:58:31;18.80;;;12.57;;
3379;SDS011;1703;51.964;7.642;2023-07-20T05:00:58;13.63;;;12.30;;
3379;SDS011;1703;51.964;7.642;2023-07-20T05:03:25;16.00;;;12.17;;
3379;SDS011;1703;51.964;7.642;2023-07-20T05:05:52;15.33;;;13.73;;
3379;SDS011;1703;51.964;7.642;2023-07-20T05:08:19;17.47;;;12.57;;
3379;SDS011;1703;51.964;7.642;2023-07-20T05:10:47;13.60;;;11.87;;
3379;SDS011;1703;51.964;7.642;2023-07-20T05:13:15;12.37;;;11.13;;
3379;SDS011;1703;51.964;7.642;2023-07-20T05:15:43;11.33;;;10.27;;
3379;SDS011;1703;51.964;7.642;2023-07-20T05:18:13;10.27;;;9.23;;
3379;SDS011;1703;51.964;7.642;2023-07-20T05:20:45;9.70;;;8.60;;
3379;SDS011;1703;51.964;7.642;2023-07-20T05:23:12;9.70;;;8.90;;
3379;SDS011;1703;51.964;7.642;2023-07-20T05:25:39;8.90;;;8.10;;
3379;SDS011;1703;51.964;7.642;2023-07-20T05:28:06;9.57;;;8.77;;
3379;SDS011;1703;51.964;7.642;2023-07-20T05:30:33;7.90;;;7.20;;
3379;SDS011;1703;51.964;7.642;2023-07-20T05:33:01;9.40;;;8.43;;
3379;SDS011;1703;51.964;7.642;2023-07-20T05:35:28;10.17;;;6.70;;
3379;SDS011;1703;51.964;7.642;2023-07-20T05:37:55;8.80;;;8.00;;
3379;SDS011;1703;51.964;7.642;2023-07-20T05:40:21;7.60;;;6.90;;
3379;SDS011;1703;51.964;7.642;2023-07-20T05:42:48;7.30;;;6.60;;
3379;SDS011;1703;51.964;7.642;2023-07-20T05:45:17;11.00;;;7.80;;
3379;SDS011;1703;51.964;7.642;2023-07-20T05:47:44;9.07;;;8.00;;
3379;SDS011;1703;51.964;7.642;2023-07-20T05:50:12;9.03;;;7.23;;
3379;SDS011;1703;51.964;7.642;2023-07-20T05:52:39;9.70;;;8.80;;
3379;SDS011;1703;51.964;7.642;2023-07-20T05:55:06;10.20;;;9.20;;
3379;SDS011;1703;51.964;7.642;2023-07-20T05:57:34;9.63;;;8.73;;
3379;SDS011;1703;51.964;7.642;2023-07-20T06:00:05;12.70;;;9.50;;
3379;SDS011;1703;51.964;7.642;2023-07-20T06:02:41;9.60;;;8.67;;
3379;SDS011;1703;51.964;7.642;2023-07-20T06:05:08;13.00;;;9.90;;
3379;SDS011;1703;51.964;7.642;2023-07-20T06:07:37;10.10;;;8.40;;
3379;SDS011;1703;51.964;7.642;2023-07-20T06:10:05;7.43;;;6.40;;
3379;SDS011;1703;51.964;7.642;2023-07-20T06:12:32;7.80;;;7.10;;
3379;SDS011;1703;51.964;7.642;2023-07-20T06:15:01;6.23;;;5.73;;
3379;SDS011;1703;51.964;7.642;2023-07-20T06:17:28;7.40;;;6.60;;
3379;SDS011;1703;51.964;7.642;2023-07-20T06:19:55;6.93;;;6.33;;
3379;SDS011;1703;51.964;7.642;2023-07-20T06:22:23;7.03;;;6.33;;
3379;SDS011;1703;51.964;7.642;2023-07-20T06:24:51;6.00;;;5.50;;
3379;SDS011;1703;51.964;7.642;2023-07-20T06:27:18;5.07;;;4.60;;
3379;SDS011;1703;51.964;7.642;2023-07-20T06:29:44;5.80;;;5.37;;
3379;SDS011;1703;51.964;7.642;2023-07-20T06:32:11;4.90;;;4.50;;
3379;SDS011;1703;51.964;7.642;2023-07-20T06:34:38;5.23;;;4.63;;
3379;SDS011;1703;51.964;7.642;2023-07-20T06:37:05;5.27;;;4.73;;
3379;SDS011;1703;51.964;7.642;2023-07-20T06:39:32;6.07;;;3.80;;
3379;SDS011;1703;51.964;7.642;2023-07-20T06:42:00;3.40;;;3.07;;
3379;SDS011;1703;51.964;7.642;2023-07-20T06:44:27;4.40;;;4.00;;
3379;SDS011;1703;51.964;7.642;2023-07-20T06:46:54;3.33;;;3.00;;
3379;SDS011;1703;51.964;7.642;2023-07-20T06:49:24;5.00;;;3.00;;
3379;SDS011;1703;51.964;7.642;2023-07-20T06:51:52;3.37;;;3.17;;
3379;SDS011;1703;51.964;7.642;2023-07-20T06:54:19;5.10;;;3.37;;
3379;SDS011;1703;51.964;7.642;2023-07-20T06:56:45;3.63;;;3.33;;
3379;SDS011;1703;51.964;7.642;2023-07-20T06:59:14;2.93;;;2.73;;
3379;SDS011;1703;51.964;7.642;2023-07-20T07:01:40;3.90;;;3.57;;
3379;SDS011;1703;51.964;7.642;2023-07-20T07:04:07;4.37;;;2.33;;
3379;SDS011;1703;51.964;7.642;2023-07-20T07:06:35;3.13;;;2.83;;
3379;SDS011;1703;51.964;7.642;2023-07-20T07:09:02;4.20;;;3.90;;
3379;SDS011;1703;51.964;7.642;2023-07-20T07:11:30;3.80;;;3.50;;
3379;SDS011;1703;51.964;7.642;2023-07-20T07:13:57;3.23;;;2.77;;
3379;SDS011;1703;51.964;7.642;2023-07-20T07:16:25;4.60;;;3.47;;
3379;SDS011;1703;51.964;7.642;2023-07-20T07:18:52;2.90;;;2.43;;
3379;SDS011;1703;51.964;7.642;2023-07-20T07:21:19;2.73;;;2.27;;
3379;SDS011;1703;51.964;7.642;2023-07-20T07:23:46;5.03;;;2.40;;
3379;SDS011;1703;51.964;7.642;2023-07-20T07:26:13;3.83;;;2.10;;
3379;SDS011;1703;51.964;7.642;2023-07-20T07:28:40;2.37;;;2.17;;
3379;SDS011;1703;51.964;7.642;2023-07-20T07:31:06;3.77;;;2.43;;
3379;SDS011;1703;51.964;7.642;2023-07-20T07:33:35;2.10;;;1.90;;
3379;SDS011;1703;51.964;7.642;2023-07-20T07:36:01;4.40;;;2.50;;
3379;SDS011;1703;51.964;7.642;2023-07-20T07:38:29;2.40;;;2.27;;
3379;SDS011;1703;51.964;7.642;2023-07-20T07:40:55;1.80;;;1.70;;
3379;SDS011;1703;51.964;7.642;2023-07-20T07:43:22;1.50;;;1.40;;
3379;SDS011;1703;51.964;7.642;2023-07-20T07:45:49;1.80;;;1.53;;
3379;SDS011;1703;51.964;7.642;2023-07-20T07:48:16;1.90;;;1.80;;
3379;SDS011;1703;51.964;7.642;2023-07-20T07:50:44;3.70;;;1.50;;
3379;SDS011;1703;51.964;7.642;2023-07-20T07:53:11;1.40;;;1.30;;
3379;SDS011;1703;51.964;7.642;2023-07-20T07:55:38;1.93;;;1.30;;
3379;SDS011;1703;51.964;7.642;2023-07-20T07:58:06;1.60;;;1.50;;
3379;SDS011;1703;51.964;7.642;2023-07-20T08:00:33;2.90;;;1.70;;
3379;SDS011;1703;51.964;7.642;2023-07-20T08:03:00;5.57;;;1.20;;
3379;SDS011;1703;51.964;7.642;2023-07-20T08:05:26;1.70;;;1.60;;
3379;SDS011;1703;51.964;7.642;2023-07-20T08:08:00;2.67;;;1.77;;
3379;SDS011;1703;51.964;7.642;2023-07-20T08:10:27;2.13;;;1.70;;
3379;SDS011;1703;51.964;7.642;2023-07-20T08:12:54;3.10;;;1.40;;
3379;SDS011;1703;51.964;7.642;2023-07-20T08:15:21;4.10;;;1.87;;
3379;SDS011;1703;51.964;7.642;2023-07-20T08:17:48;1.37;;;1.27;;
3379;SDS011;1703;51.964;7.642;2023-07-20T08:20:17;2.10;;;1.67;;
3379;SDS011;1703;51.964;7.642;2023-07-20T08:22:44;2.90;;;1.47;;
3379;SDS011;1703;51.964;7.642;2023-07-20T08:25:12;1.93;;;1.17;;
3379;SDS011;1703;51.964;7.642;2023-07-20T08:27:48;1.40;;;1.03;;
3379;SDS011;1703;51.964;7.642;2023-07-20T08:30:26;1.10;;;1.00;;
3379;SDS011;1703;51.964;7.642;2023-07-20T08:32:52;1.60;;;1.50;;
3379;SDS011;1703;51.964;7.642;2023-07-20T08:35:19;6.00;;;1.33;;
3379;SDS011;1703;51.964;7.642;2023-07-20T08:37:46;5.83;;;1.60;;
3379;SDS011;1703;51.964;7.642;2023-07-20T08:40:15;1.73;;;1.47;;
3379;SDS011;1703;51.964;7.642;2023-07-20T08:42:42;4.63;;;1.70;;
3379;SDS011;1703;51.964;7.642;2023-07-20T08:45:10;3.10;;;1.80;;
3379;SDS011;1703;51.964;7.642;2023-07-20T08:47:40;1.10;;;1.00;;
3379;SDS011;1703;51.964;7.642;2023-07-20T08:50:09;5.67;;;1.83;;
3379;SDS011;1703;51.964;7.642;2023-07-20T08:52:36;1.90;;;1.10;;
3379;SDS011;1703;51.964;7.642;2023-07-20T08:55:04;1.53;;;1.37;;
3379;SDS011;1703;51.964;7.642;2023-07-20T08:57:33;1.13;;;0.80;;
3379;SDS011;1703;51.964;7.642;2023-07-20T09:00:01;3.80;;;1.40;;
3379;SDS011;1703;51.964;7.642;2023-07-20T09:02:31;6.63;;;1.50;;
3379;SDS011;1703;51.964;7.642;2023-07-20T09:05:05;1.73;;;1.10;;
3379;SDS011;1703;51.964;7.642;2023-07-20T09:07:34;1.90;;;1.47;;
3379;SDS011;1703;51.964;7.642;2023-07-20T09:10:02;1.10;;;0.97;;
3379;SDS011;1703;51.964;7.642;2023-07-20T09:12:32;2.97;;;0.90;;
3379;SDS011;1703;51.964;7.642;2023-07-20T09:15:01;5.30;;;1.13;;
3379;SDS011;1703;51.964;7.642;2023-07-20T09:17:28;1.20;;;1.00;;
3379;SDS011;1703;51.964;7.642;2023-07-20T09:19:55;3.23;;;1.10;;
3379;SDS011;1703;51.964;7.642;2023-07-20T09:22:23;3.80;;;0.80;;
3379;SDS011;1703;51.964;7.642;2023-07-20T09:24:56;0.93;;;0.70;;
3379;SDS011;1703;51.964;7.642;2023-07-20T09:27:24;4.33;;;1.63;;
3379;SDS011;1703;51.964;7.642;2023-07-20T09:30:03;1.37;;;1.27;;
3379;SDS011;1703;51.964;7.642;2023-07-20T09:32:38;1.20;;;1.10;;
3379;SDS011;1703;51.964;7.642;2023-07-20T09:35:06;2.60;;;1.10;;
3379;SDS011;1703;51.964;7.642;2023-07-20T09:37:38;1.63;;;1.27;;
3379;SDS011;1703;51.964;7.642;2023-07-20T09:40:06;1.33;;;1.23;;
3379;SDS011;1703;51.964;7.642;2023-07-20T09:42:36;2.37;;;1.07;;
3379;SDS011;1703;51.964;7.642;2023-07-20T09:45:03;1.30;;;1.00;;
3379;SDS011;1703;51.964;7.642;2023-07-20T09:47:34;2.00;;;0.90;;
3379;SDS011;1703;51.964;7.642;2023-07-20T09:50:03;1.20;;;0.80;;
3379;SDS011;1703;51.964;7.642;2023-07-20T09:52:35;5.67;;;3.13;;
3379;SDS011;1703;51.964;7.642;2023-07-20T09:55:04;1.63;;;1.53;;
3379;SDS011;1703;51.964;7.642;2023-07-20T09:57:32;0.70;;;0.70;;
3379;SDS011;1703;51.964;7.642;2023-07-20T10:00:01;2.60;;;0.80;;
3379;SDS011;1703;51.964;7.642;2023-07-20T10:02:32;3.03;;;0.90;;
3379;SDS011;1703;51.964;7.642;2023-07-20T10:05:01;1.90;;;0.97;;
3379;SDS011;1703;51.964;7.642;2023-07-20T10:07:30;2.67;;;1.00;;
3379;SDS011;1703;51.964;7.642;2023-07-20T10:09:59;0.80;;;0.80;;
3379;SDS011;1703;51.964;7.642;2023-07-20T10:12:28;2.50;;;0.90;;
3379;SDS011;1703;51.964;7.642;2023-07-20T10:14:57;1.00;;;0.63;;
3379;SDS011;1703;51.964;7.642;2023-07-20T10:17:33;0.70;;;0.70;;
3379;SDS011;1703;51.964;7.642;2023-07-20T10:20:01;1.10;;;1.00;;
3379;SDS011;1703;51.964;7.642;2023-07-20T10:22:30;1.80;;;0.80;;
3379;SDS011;1703;51.964;7.642;2023-07-20T10:25:01;0.83;;;0.70;;
3379;SDS011;1703;51.964;7.642;2023-07-20T10:27:30;0.80;;;0.80;;
3379;SDS011;1703;51.964;7.642;2023-07-20T10:29:57;0.90;;;0.63;;
3379;SDS011;1703;51.964;7.642;2023-07-20T10:32:28;0.70;;;0.60;;
3379;SDS011;1703;51.964;7.642;2023-07-20T10:34:55;1.03;;;0.80;;
3379;SDS011;1703;51.964;7.642;2023-07-20T10:43:01;1.90;;;0.80;;
3379;SDS011;1703;51.964;7.642;2023-07-20T10:45:33;0.90;;;0.90;;
3379;SDS011;1703;51.964;7.642;2023-07-20T10:48:05;1.07;;;0.83;;
3379;SDS011;1703;51.964;7.642;2023-07-20T10:50:40;1.10;;;0.80;;
3379;SDS011;1703;51.964;7.642;2023-07-20T10:53:10;4.50;;;0.83;;
3379;SDS011;1703;51.964;7.642;2023-07-20T10:55:38;1.50;;;1.00;;
3379;SDS011;1703;51.964;7.642;2023-07-20T10:58:08;2.53;;;0.80;;
3379;SDS011;1703;51.964;7.642;2023-07-20T11:00:56;3.07;;;0.90;;
3379;SDS011;1703;51.964;7.642;2023-07-20T11:03:30;2.83;;;0.70;;
3379;SDS011;1703;51.964;7.642;2023-07-20T11:05:58;2.60;;;0.80;;
3379;SDS011;1703;51.964;7.642;2023-07-20T11:08:38;1.53;;;0.90;;
3379;SDS011;1703;51.964;7.642;2023-07-20T11:11:21;3.50;;;1.20;;
3379;SDS011;1703;51.964;7.642;2023-07-20T11:13:56;1.37;;;1.13;;
3379;SDS011;1703;51.964;7.642;2023-07-20T11:16:33;1.83;;;1.10;;
3379;SDS011;1703;51.964;7.642;2023-07-20T11:19:02;2.83;;;2.03;;
3379;SDS011;1703;51.964;7.642;2023-07-20T11:21:30;0.80;;;0.70;;
3379;SDS011;1703;51.964;7.642;2023-07-20T11:24:02;0.87;;;0.80;;
3379;SDS011;1703;51.964;7.642;2023-07-20T11:26:30;1.67;;;1.20;;
3379;SDS011;1703;51.964;7.642;2023-07-20T11:29:05;1.07;;;0.70;;
3379;SDS011;1703;51.964;7.642;2023-07-20T11:31:34;0.80;;;0.70;;
3379;SDS011;1703;51.964;7.642;2023-07-20T11:34:03;1.33;;;0.83;;
3379;SDS011;1703;51.964;7.642;2023-07-20T11:36:30;2.50;;;1.00;;
3379;SDS011;1703;51.964;7.642;2023-07-20T11:38:57;1.63;;;1.53;;
3379;SDS011;1703;51.964;7.642;2023-07-20T11:41:24;2.47;;;0.80;;
3379;SDS011;1703;51.964;7.642;2023-07-20T11:43:51;0.80;;;0.70;;
3379;SDS011;1703;51.964;7.642;2023-07-20T11:46:19;0.90;;;0.77;;
3379;SDS011;1703;51.964;7.642;2023-07-20T11:48:46;2.73;;;0.70;;
3379;SDS011;1703;51.964;7.642;2023-07-20T11:51:15;2.67;;;0.87;;
3379;SDS011;1703;51.964;7.642;2023-07-20T11:53:42;0.87;;;0.80;;
3379;SDS011;1703;51.964;7.642;2023-07-20T11:56:11;1.43;;;1.03;;
3379;SDS011;1703;51.964;7.642;2023-07-20T11:58:41;0.80;;;0.70;;
3379;SDS011;1703;51.964;7.642;2023-07-20T12:01:09;1.20;;;0.70;;
3379;SDS011;1703;51.964;7.642;2023-07-20T12:03:36;1.57;;;0.70;;
3379;SDS011;1703;51.964;7.642;2023-07-20T12:06:06;0.80;;;0.73;;
3379;SDS011;1703;51.964;7.642;2023-07-20T12:08:35;2.40;;;0.70;;
3379;SDS011;1703;51.964;7.642;2023-07-20T12:11:05;0.90;;;0.73;;
3379;SDS011;1703;51.964;7.642;2023-07-20T12:13:35;1.73;;;0.80;;
3379;SDS011;1703;51.964;7.642;2023-07-20T12:16:08;0.80;;;0.70;;
3379;SDS011;1703;51.964;7.642;2023-07-20T12:18:36;0.80;;;0.70;;
3379;SDS011;1703;51.964;7.642;2023-07-20T12:21:03;0.70;;;0.70;;
3379;SDS011;1703;51.964;7.642;2023-07-20T12:23:36;0.90;;;0.70;;
3379;SDS011;1703;51.964;7.642;2023-07-20T12:26:05;1.40;;;0.63;;
3379;SDS011;1703;51.964;7.642;2023-07-20T12:28:35;1.47;;;0.70;;
3379;SDS011;1703;51.964;7.642;2023-07-20T12:31:04;1.47;;;0.80;;
3379;SDS011;1703;51.964;7.642;2023-07-20T12:33:31;14.40;;;2.30;;
3379;SDS011;1703;51.964;7.642;2023-07-20T12:35:59;3.17;;;1.30;;
3379;SDS011;1703;51.964;7.642;2023-07-20T12:38:26;2.20;;;0.90;;
3379;SDS011;1703;51.964;7.642;2023-07-20T12:40:55;1.50;;;1.10;;
3379;SDS011;1703;51.964;7.642;2023-07-20T12:43:21;5.27;;;1.30;;
3379;SDS011;1703;51.964;7.642;2023-07-20T12:45:48;3.80;;;0.83;;
3379;SDS011;1703;51.964;7.642;2023-07-20T12:48:15;0.93;;;0.67;;
3379;SDS011;1703;51.964;7.642;2023-07-20T12:50:42;0.83;;;0.70;;
3379;SDS011;1703;51.964;7.642;2023-07-20T12:53:09;1.67;;;0.90;;
3379;SDS011;1703;51.964;7.642;2023-07-20T12:55:37;0.70;;;0.60;;
3379;SDS011;1703;51.964;7.642;2023-07-20T12:58:06;0.90;;;0.70;;
3379;SDS011;1703;51.964;7.642;2023-07-20T13:00:33;1.10;;;1.00;;
3379;SDS011;1703;51.964;7.642;2023-07-20T13:03:00;0.80;;;0.70;;
3379;SDS011;1703;51.964;7.642;2023-07-20T13:05:29;3.20;;;0.80;;
3379;SDS011;1703;51.964;7.642;2023-07-20T13:07:58;0.80;;;0.70;;
3379;SDS011;1703;51.964;7.642;2023-07-20T13:10:25;0.70;;;0.60;;
3379;SDS011;1703;51.964;7.642;2023-07-20T13:12:52;0.80;;;0.80;;
3379;SDS011;1703;51.964;7.642;2023-07-20T13:15:20;0.80;;;0.80;;
3379;SDS011;1703;51.964;7.642;2023-07-20T13:17:47;0.87;;;0.80;;
3379;SDS011;1703;51.964;7.642;2023-07-20T13:20:14;2.80;;;0.90;;
3379;SDS011;1703;51.964;7.642;2023-07-20T13:22:41;0.80;;;0.70;;
3379;SDS011;1703;51.964;7.642;2023-07-20T13:25:08;2.00;;;0.90;;
3379;SDS011;1703;51.964;7.642;2023-07-20T13:27:35;0.87;;;0.77;;
3379;SDS011;1703;51.964;7.642;2023-07-20T13:30:03;2.50;;;1.00;;
3379;SDS011;1703;51.964;7.642;2023-07-20T13:32:33;1.07;;;0.60;;
3379;SDS011;1703;51.964;7.642;2023-07-20T13:34:59;0.80;;;0.73;;
3379;SDS011;1703;51.964;7.642;2023-07-20T13:37:26;1.27;;;1.10;;
3379;SDS011;1703;51.964;7.642;2023-07-20T13:39:53;1.23;;;0.80;;
3379;SDS011;1703;51.964;7.642;2023-07-20T13:42:20;2.10;;;1.00;;
3379;SDS011;1703;51.964;7.642;2023-07-20T13:44:47;1.77;;;0.90;;
3379;SDS011;1703;51.964;7.642;2023-07-20T13:47:14;1.00;;;0.70;;
3379;SDS011;1703;51.964;7.642;2023-07-20T13:49:43;1.00;;;0.80;;
3379;SDS011;1703;51.964;7.642;2023-07-20T13:52:10;0.93;;;0.83;;
3379;SDS011;1703;51.964;7.642;2023-07-20T13:54:36;1.30;;;1.20;;
3379;SDS011;1703;51.964;7.642;2023-07-20T13:57:03;1.80;;;0.97;;
3379;SDS011;1703;51.964;7.642;2023-07-20T13:59:31;1.00;;;0.90;;
3379;SDS011;1703;51.964;7.642;2023-07-20T14:01:58;1.13;;;0.87;;
3379;SDS011;1703;51.964;7.642;2023-07-20T14:04:24;2.60;;;1.10;;
3379;SDS011;1703;51.964;7.642;2023-07-20T14:06:53;2.70;;;1.33;;
3379;SDS011;1703;51.964;7.642;2023-07-20T14:09:19;1.10;;;1.00;;
3379;SDS011;1703;51.964;7.642;2023-07-20T14:11:46;1.57;;;1.47;;
3379;SDS011;1703;51.964;7.642;2023-07-20T14:14:13;2.20;;;1.43;;
3379;SDS011;1703;51.964;7.642;2023-07-20T14:16:40;1.40;;;0.90;;
3379;SDS011;1703;51.964;7.642;2023-07-20T14:19:07;0.93;;;0.83;;
3379;SDS011;1703;51.964;7.642;2023-07-20T14:21:33;2.97;;;0.97;;
3379;SDS011;1703;51.964;7.642;2023-07-20T14:24:02;0.90;;;0.90;;
3379;SDS011;1703;51.964;7.642;2023-07-20T14:26:29;0.77;;;0.77;;
3379;SDS011;1703;51.964;7.642;2023-07-20T14:28:56;3.83;;;0.90;;
3379;SDS011;1703;51.964;7.642;2023-07-20T14:31:22;1.50;;;0.80;;
3379;SDS011;1703;51.964;7.642;2023-07-20T14:33:49;3.00;;;1.23;;
3379;SDS011;1703;51.964;7.642;2023-07-20T14:36:16;2.40;;;1.30;;
3379;SDS011;1703;51.964;7.642;2023-07-20T14:38:43;2.20;;;1.57;;
3379;SDS011;1703;51.964;7.642;2023-07-20T14:41:11;0.97;;;0.90;;
3379;SDS011;1703;51.964;7.642;2023-07-20T14:43:38;23.47;;;1.63;;
3379;SDS011;1703;51.964;7.642;2023-07-20T14:46:05;2.50;;;1.10;;
3379;SDS011;1703;51.964;7.642;2023-07-20T14:48:31;1.00;;;0.90;;
3379;SDS011;1703;51.964;7.642;2023-07-20T14:50:58;1.47;;;1.00;;
3379;SDS011;1703;51.964;7.642;2023-07-20T14:53:25;1.10;;;1.00;;
3379;SDS011;1703;51.964;7.642;2023-07-20T14:55:57;0.90;;;0.70;;
3379;SDS011;1703;51.964;7.642;2023-07-20T14:58:27;1.67;;;0.80;;
3379;SDS011;1703;51.964;7.642;2023-07-20T15:00:54;10.50;;;0.70;;
3379;SDS011;1703;51.964;7.642;2023-07-20T15:03:21;1.30;;;1.00;;
3379;SDS011;1703;51.964;7.642;2023-07-20T15:05:48;2.07;;;0.80;;
3379;SDS011;1703;51.964;7.642;2023-07-20T15:08:16;0.80;;;0.80;;
3379;SDS011;1703;51.964;7.642;2023-07-20T15:10:44;1.63;;;0.80;;
3379;SDS011;1703;51.964;7.642;2023-07-20T15:13:11;2.17;;;1.10;;
3379;SDS011;1703;51.964;7.642;2023-07-20T15:15:40;1.03;;;0.93;;
3379;SDS011;1703;51.964;7.642;2023-07-20T15:18:08;0.80;;;0.80;;
3379;SDS011;1703;51.964;7.642;2023-07-20T15:20:35;1.10;;;0.87;;
3379;SDS011;1703;51.964;7.642;2023-07-20T15:23:01;1.47;;;1.37;;
3379;SDS011;1703;51.964;7.642;2023-07-20T15:25:28;1.10;;;0.87;;